sim
Sign-in with your pilot id or email,
or register
Callsign
Passwort

Schedule Details

Flight Number: OEO6139
Departure: Halifax Stanfield International Airport (CYHZ) at 21:50
Arrival: Munich Airport (EDDM) at 04:50

Weather Information
Getting current METAR information for CYHZ 221700Z 03020G28KT 1 1/2SM RA BR OVC007 09/09 A2978 RMK NS8 /R10/ SLP090
Getting current METAR information for EDDM 221750Z VRB01KT 9999 FEW050TCU 18/15 Q1010 NOSIG

Schedule Frequency

Route Map